sensor_id;sensor_type;location;lat;lon;timestamp;P1;durP1;ratioP1;P2;durP2;ratioP2
2434;SDS011;1228;51.022;6.764;2023-07-13T00:01:14;4.27;;;3.90;;
2434;SDS011;1228;51.022;6.764;2023-07-13T00:03:41;4.20;;;3.80;;
2434;SDS011;1228;51.022;6.764;2023-07-13T00:06:07;5.23;;;3.83;;
2434;SDS011;1228;51.022;6.764;2023-07-13T00:08:34;7.47;;;3.70;;
2434;SDS011;1228;51.022;6.764;2023-07-13T00:11:00;4.50;;;4.10;;
2434;SDS011;1228;51.022;6.764;2023-07-13T00:13:27;4.27;;;3.97;;
2434;SDS011;1228;51.022;6.764;2023-07-13T00:15:54;5.43;;;3.80;;
2434;SDS011;1228;51.022;6.764;2023-07-13T00:18:20;5.53;;;4.17;;
2434;SDS011;1228;51.022;6.764;2023-07-13T00:20:46;4.57;;;4.23;;
2434;SDS011;1228;51.022;6.764;2023-07-13T00:23:12;7.90;;;4.13;;
2434;SDS011;1228;51.022;6.764;2023-07-13T00:25:38;5.00;;;4.00;;
2434;SDS011;1228;51.022;6.764;2023-07-13T00:28:04;4.50;;;4.20;;
2434;SDS011;1228;51.022;6.764;2023-07-13T00:30:29;4.97;;;4.53;;
2434;SDS011;1228;51.022;6.764;2023-07-13T00:32:55;5.03;;;4.37;;
2434;SDS011;1228;51.022;6.764;2023-07-13T00:35:20;5.60;;;4.77;;
2434;SDS011;1228;51.022;6.764;2023-07-13T00:37:46;4.20;;;3.80;;
2434;SDS011;1228;51.022;6.764;2023-07-13T00:40:12;10.00;;;4.20;;
2434;SDS011;1228;51.022;6.764;2023-07-13T00:42:39;4.03;;;3.63;;
2434;SDS011;1228;51.022;6.764;2023-07-13T00:47:37;4.30;;;4.00;;
2434;SDS011;1228;51.022;6.764;2023-07-13T00:50:04;7.07;;;5.30;;
2434;SDS011;1228;51.022;6.764;2023-07-13T00:52:35;4.87;;;4.47;;
2434;SDS011;1228;51.022;6.764;2023-07-13T00:55:02;5.53;;;5.07;;
2434;SDS011;1228;51.022;6.764;2023-07-13T00:57:29;5.20;;;3.93;;
2434;SDS011;1228;51.022;6.764;2023-07-13T00:59:55;3.97;;;3.67;;
2434;SDS011;1228;51.022;6.764;2023-07-13T01:02:24;4.50;;;4.20;;
2434;SDS011;1228;51.022;6.764;2023-07-13T01:04:50;4.70;;;3.80;;
2434;SDS011;1228;51.022;6.764;2023-07-13T01:07:16;4.30;;;3.90;;
2434;SDS011;1228;51.022;6.764;2023-07-13T01:09:43;4.70;;;4.50;;
2434;SDS011;1228;51.022;6.764;2023-07-13T01:12:10;6.70;;;4.23;;
2434;SDS011;1228;51.022;6.764;2023-07-13T01:14:36;5.03;;;4.07;;
2434;SDS011;1228;51.022;6.764;2023-07-13T01:17:02;4.20;;;3.90;;
2434;SDS011;1228;51.022;6.764;2023-07-13T01:22:05;4.37;;;3.77;;
2434;SDS011;1228;51.022;6.764;2023-07-13T01:24:34;4.00;;;3.70;;
2434;SDS011;1228;51.022;6.764;2023-07-13T01:27:01;6.57;;;4.07;;
2434;SDS011;1228;51.022;6.764;2023-07-13T01:29:27;6.77;;;4.20;;
2434;SDS011;1228;51.022;6.764;2023-07-13T01:31:53;4.53;;;4.13;;
2434;SDS011;1228;51.022;6.764;2023-07-13T01:34:18;5.23;;;4.10;;
2434;SDS011;1228;51.022;6.764;2023-07-13T01:36:44;5.00;;;4.60;;
2434;SDS011;1228;51.022;6.764;2023-07-13T01:39:09;4.27;;;3.93;;
2434;SDS011;1228;51.022;6.764;2023-07-13T01:41:35;4.83;;;4.43;;
2434;SDS011;1228;51.022;6.764;2023-07-13T01:44:01;5.00;;;4.50;;
2434;SDS011;1228;51.022;6.764;2023-07-13T01:46:26;6.87;;;4.43;;
2434;SDS011;1228;51.022;6.764;2023-07-13T01:48:52;6.63;;;4.80;;
2434;SDS011;1228;51.022;6.764;2023-07-13T01:51:18;4.80;;;4.40;;
2434;SDS011;1228;51.022;6.764;2023-07-13T01:53:44;10.97;;;5.43;;
2434;SDS011;1228;51.022;6.764;2023-07-13T01:56:10;7.17;;;6.67;;
2434;SDS011;1228;51.022;6.764;2023-07-13T01:58:36;5.13;;;4.73;;
2434;SDS011;1228;51.022;6.764;2023-07-13T02:01:01;4.93;;;4.20;;
2434;SDS011;1228;51.022;6.764;2023-07-13T02:03:27;5.23;;;4.53;;
2434;SDS011;1228;51.022;6.764;2023-07-13T02:05:53;7.73;;;5.10;;
2434;SDS011;1228;51.022;6.764;2023-07-13T02:08:18;5.43;;;5.03;;
2434;SDS011;1228;51.022;6.764;2023-07-13T02:10:44;8.43;;;7.93;;
2434;SDS011;1228;51.022;6.764;2023-07-13T02:13:09;5.63;;;5.23;;
2434;SDS011;1228;51.022;6.764;2023-07-13T02:15:37;6.77;;;5.27;;
2434;SDS011;1228;51.022;6.764;2023-07-13T02:18:04;5.23;;;4.77;;
2434;SDS011;1228;51.022;6.764;2023-07-13T02:20:30;8.07;;;4.67;;
2434;SDS011;1228;51.022;6.764;2023-07-13T02:22:55;5.43;;;4.93;;
2434;SDS011;1228;51.022;6.764;2023-07-13T02:25:21;4.97;;;4.47;;
2434;SDS011;1228;51.022;6.764;2023-07-13T02:27:46;5.77;;;5.37;;
2434;SDS011;1228;51.022;6.764;2023-07-13T02:30:12;6.03;;;5.47;;
2434;SDS011;1228;51.022;6.764;2023-07-13T02:32:38;7.37;;;6.67;;
2434;SDS011;1228;51.022;6.764;2023-07-13T02:35:04;6.30;;;5.37;;
2434;SDS011;1228;51.022;6.764;2023-07-13T02:37:30;8.50;;;5.00;;
2434;SDS011;1228;51.022;6.764;2023-07-13T02:39:56;5.40;;;5.00;;
2434;SDS011;1228;51.022;6.764;2023-07-13T02:42:22;5.07;;;4.60;;
2434;SDS011;1228;51.022;6.764;2023-07-13T02:44:47;6.80;;;4.33;;
2434;SDS011;1228;51.022;6.764;2023-07-13T02:47:14;4.13;;;3.73;;
2434;SDS011;1228;51.022;6.764;2023-07-13T02:49:40;4.30;;;3.90;;
2434;SDS011;1228;51.022;6.764;2023-07-13T02:52:05;4.63;;;4.23;;
2434;SDS011;1228;51.022;6.764;2023-07-13T02:54:31;5.37;;;4.43;;
2434;SDS011;1228;51.022;6.764;2023-07-13T02:56:57;4.17;;;3.87;;
2434;SDS011;1228;51.022;6.764;2023-07-13T02:59:23;6.73;;;4.50;;
2434;SDS011;1228;51.022;6.764;2023-07-13T03:01:48;4.47;;;4.00;;
2434;SDS011;1228;51.022;6.764;2023-07-13T03:04:14;4.87;;;4.37;;
2434;SDS011;1228;51.022;6.764;2023-07-13T03:06:41;5.13;;;4.63;;
2434;SDS011;1228;51.022;6.764;2023-07-13T03:09:06;4.40;;;4.10;;
2434;SDS011;1228;51.022;6.764;2023-07-13T03:11:33;4.00;;;3.70;;
2434;SDS011;1228;51.022;6.764;2023-07-13T03:13:58;4.07;;;3.60;;
2434;SDS011;1228;51.022;6.764;2023-07-13T03:16:24;7.73;;;3.97;;
2434;SDS011;1228;51.022;6.764;2023-07-13T03:18:49;4.13;;;3.73;;
2434;SDS011;1228;51.022;6.764;2023-07-13T03:21:15;6.43;;;4.00;;
2434;SDS011;1228;51.022;6.764;2023-07-13T03:23:41;4.00;;;3.70;;
2434;SDS011;1228;51.022;6.764;2023-07-13T03:26:14;8.80;;;4.23;;
2434;SDS011;1228;51.022;6.764;2023-07-13T03:28:42;4.33;;;3.93;;
2434;SDS011;1228;51.022;6.764;2023-07-13T03:31:08;4.23;;;3.83;;
2434;SDS011;1228;51.022;6.764;2023-07-13T03:33:45;4.80;;;4.50;;
2434;SDS011;1228;51.022;6.764;2023-07-13T03:36:16;5.90;;;3.97;;
2434;SDS011;1228;51.022;6.764;2023-07-13T03:38:48;4.57;;;4.17;;
2434;SDS011;1228;51.022;6.764;2023-07-13T03:41:15;5.20;;;3.90;;
2434;SDS011;1228;51.022;6.764;2023-07-13T03:43:41;4.70;;;4.30;;
2434;SDS011;1228;51.022;6.764;2023-07-13T03:46:07;4.50;;;4.10;;
2434;SDS011;1228;51.022;6.764;2023-07-13T03:48:33;4.30;;;4.00;;
2434;SDS011;1228;51.022;6.764;2023-07-13T03:50:58;5.20;;;4.07;;
2434;SDS011;1228;51.022;6.764;2023-07-13T03:53:25;5.23;;;4.80;;
2434;SDS011;1228;51.022;6.764;2023-07-13T03:55:50;4.87;;;4.37;;
2434;SDS011;1228;51.022;6.764;2023-07-13T03:58:27;5.70;;;4.00;;
2434;SDS011;1228;51.022;6.764;2023-07-13T04:00:57;5.00;;;4.60;;
2434;SDS011;1228;51.022;6.764;2023-07-13T04:03:24;5.50;;;5.10;;
2434;SDS011;1228;51.022;6.764;2023-07-13T04:05:54;5.63;;;4.67;;
2434;SDS011;1228;51.022;6.764;2023-07-13T04:08:24;8.20;;;4.43;;
2434;SDS011;1228;51.022;6.764;2023-07-13T04:10:53;7.77;;;4.20;;
2434;SDS011;1228;51.022;6.764;2023-07-13T04:13:19;4.70;;;4.07;;
2434;SDS011;1228;51.022;6.764;2023-07-13T04:15:45;6.57;;;4.00;;
2434;SDS011;1228;51.022;6.764;2023-07-13T04:18:11;7.27;;;4.10;;
2434;SDS011;1228;51.022;6.764;2023-07-13T04:20:36;4.47;;;3.87;;
2434;SDS011;1228;51.022;6.764;2023-07-13T04:23:02;4.33;;;4.03;;
2434;SDS011;1228;51.022;6.764;2023-07-13T04:25:28;5.40;;;4.60;;
2434;SDS011;1228;51.022;6.764;2023-07-13T04:27:53;7.03;;;4.10;;
2434;SDS011;1228;51.022;6.764;2023-07-13T04:30:20;6.43;;;4.37;;
2434;SDS011;1228;51.022;6.764;2023-07-13T04:32:46;4.83;;;4.43;;
2434;SDS011;1228;51.022;6.764;2023-07-13T04:35:12;7.47;;;4.23;;
2434;SDS011;1228;51.022;6.764;2023-07-13T04:37:39;8.97;;;4.50;;
2434;SDS011;1228;51.022;6.764;2023-07-13T04:40:05;5.87;;;4.50;;
2434;SDS011;1228;51.022;6.764;2023-07-13T04:42:31;3.77;;;3.57;;
2434;SDS011;1228;51.022;6.764;2023-07-13T04:44:59;4.67;;;3.80;;
2434;SDS011;1228;51.022;6.764;2023-07-13T04:47:25;4.07;;;3.77;;
2434;SDS011;1228;51.022;6.764;2023-07-13T04:49:50;4.70;;;4.20;;
2434;SDS011;1228;51.022;6.764;2023-07-13T04:52:16;5.23;;;4.63;;
2434;SDS011;1228;51.022;6.764;2023-07-13T04:54:41;4.77;;;4.47;;
2434;SDS011;1228;51.022;6.764;2023-07-13T04:57:07;5.20;;;4.77;;
2434;SDS011;1228;51.022;6.764;2023-07-13T04:59:33;6.67;;;4.23;;
2434;SDS011;1228;51.022;6.764;2023-07-13T05:01:58;5.27;;;4.50;;
2434;SDS011;1228;51.022;6.764;2023-07-13T05:04:24;3.73;;;3.53;;
2434;SDS011;1228;51.022;6.764;2023-07-13T05:06:50;5.43;;;4.80;;
2434;SDS011;1228;51.022;6.764;2023-07-13T05:09:16;5.67;;;4.33;;
2434;SDS011;1228;51.022;6.764;2023-07-13T05:11:41;4.17;;;3.70;;
2434;SDS011;1228;51.022;6.764;2023-07-13T05:14:08;6.67;;;4.80;;
2434;SDS011;1228;51.022;6.764;2023-07-13T05:16:34;9.07;;;5.77;;
2434;SDS011;1228;51.022;6.764;2023-07-13T05:19:00;7.83;;;7.30;;
2434;SDS011;1228;51.022;6.764;2023-07-13T05:21:26;6.03;;;5.00;;
2434;SDS011;1228;51.022;6.764;2023-07-13T05:23:52;6.43;;;5.80;;
2434;SDS011;1228;51.022;6.764;2023-07-13T05:26:17;8.00;;;5.23;;
2434;SDS011;1228;51.022;6.764;2023-07-13T05:28:43;6.55;;;4.50;;
2434;SDS011;1228;51.022;6.764;2023-07-13T05:31:09;4.03;;;3.60;;
2434;SDS011;1228;51.022;6.764;2023-07-13T05:33:35;6.70;;;3.70;;
2434;SDS011;1228;51.022;6.764;2023-07-13T05:36:01;7.60;;;3.60;;
2434;SDS011;1228;51.022;6.764;2023-07-13T05:38:27;7.47;;;4.20;;
2434;SDS011;1228;51.022;6.764;2023-07-13T05:40:53;5.57;;;4.10;;
2434;SDS011;1228;51.022;6.764;2023-07-13T05:43:20;6.63;;;5.03;;
2434;SDS011;1228;51.022;6.764;2023-07-13T05:45:46;4.80;;;4.40;;
2434;SDS011;1228;51.022;6.764;2023-07-13T05:48:12;5.87;;;4.23;;
2434;SDS011;1228;51.022;6.764;2023-07-13T05:50:38;7.10;;;4.27;;
2434;SDS011;1228;51.022;6.764;2023-07-13T05:53:03;6.13;;;3.60;;
2434;SDS011;1228;51.022;6.764;2023-07-13T05:55:30;6.43;;;4.40;;
2434;SDS011;1228;51.022;6.764;2023-07-13T05:57:55;5.73;;;3.93;;
2434;SDS011;1228;51.022;6.764;2023-07-13T06:00:23;7.83;;;3.93;;
2434;SDS011;1228;51.022;6.764;2023-07-13T06:02:49;7.10;;;3.73;;
2434;SDS011;1228;51.022;6.764;2023-07-13T06:05:14;9.53;;;8.60;;
2434;SDS011;1228;51.022;6.764;2023-07-13T06:07:40;6.37;;;5.77;;
2434;SDS011;1228;51.022;6.764;2023-07-13T06:10:07;4.50;;;4.20;;
2434;SDS011;1228;51.022;6.764;2023-07-13T06:12:32;4.23;;;3.60;;
2434;SDS011;1228;51.022;6.764;2023-07-13T06:14:58;5.47;;;3.63;;
2434;SDS011;1228;51.022;6.764;2023-07-13T06:17:24;5.90;;;3.70;;
2434;SDS011;1228;51.022;6.764;2023-07-13T06:19:49;4.30;;;3.90;;
2434;SDS011;1228;51.022;6.764;2023-07-13T06:22:15;8.93;;;4.53;;
2434;SDS011;1228;51.022;6.764;2023-07-13T06:24:40;5.43;;;3.80;;
2434;SDS011;1228;51.022;6.764;2023-07-13T06:27:06;6.70;;;4.20;;
2434;SDS011;1228;51.022;6.764;2023-07-13T06:29:32;6.03;;;4.30;;
2434;SDS011;1228;51.022;6.764;2023-07-13T06:31:57;7.53;;;3.67;;
2434;SDS011;1228;51.022;6.764;2023-07-13T06:34:23;6.80;;;4.00;;
2434;SDS011;1228;51.022;6.764;2023-07-13T06:36:48;4.85;;;4.38;;
2434;SDS011;1228;51.022;6.764;2023-07-13T06:39:14;4.88;;;4.10;;
2434;SDS011;1228;51.022;6.764;2023-07-13T06:41:40;4.03;;;3.63;;
2434;SDS011;1228;51.022;6.764;2023-07-13T06:44:05;4.45;;;3.58;;
2434;SDS011;1228;51.022;6.764;2023-07-13T06:46:31;4.75;;;4.20;;
2434;SDS011;1228;51.022;6.764;2023-07-13T06:48:57;4.80;;;3.90;;
2434;SDS011;1228;51.022;6.764;2023-07-13T06:51:22;6.10;;;5.45;;
2434;SDS011;1228;51.022;6.764;2023-07-13T06:53:48;7.35;;;5.40;;
2434;SDS011;1228;51.022;6.764;2023-07-13T06:56:15;6.35;;;5.57;;
2434;SDS011;1228;51.022;6.764;2023-07-13T06:58:40;9.25;;;4.70;;
2434;SDS011;1228;51.022;6.764;2023-07-13T07:01:06;7.00;;;5.10;;
2434;SDS011;1228;51.022;6.764;2023-07-13T07:03:31;4.00;;;3.63;;
2434;SDS011;1228;51.022;6.764;2023-07-13T07:06:01;5.47;;;4.43;;
2434;SDS011;1228;51.022;6.764;2023-07-13T07:08:41;7.63;;;4.13;;
2434;SDS011;1228;51.022;6.764;2023-07-13T07:11:08;6.97;;;4.25;;
2434;SDS011;1228;51.022;6.764;2023-07-13T07:13:37;6.03;;;4.28;;
2434;SDS011;1228;51.022;6.764;2023-07-13T07:16:03;5.23;;;4.20;;
2434;SDS011;1228;51.022;6.764;2023-07-13T07:18:28;7.22;;;4.43;;
2434;SDS011;1228;51.022;6.764;2023-07-13T07:20:54;6.93;;;3.83;;
2434;SDS011;1228;51.022;6.764;2023-07-13T07:23:20;5.93;;;4.30;;
2434;SDS011;1228;51.022;6.764;2023-07-13T07:25:45;7.80;;;4.07;;
2434;SDS011;1228;51.022;6.764;2023-07-13T07:28:12;9.73;;;4.90;;
2434;SDS011;1228;51.022;6.764;2023-07-13T07:30:43;7.83;;;4.97;;
2434;SDS011;1228;51.022;6.764;2023-07-13T07:33:09;7.40;;;4.97;;
2434;SDS011;1228;51.022;6.764;2023-07-13T07:35:35;4.72;;;4.05;;
2434;SDS011;1228;51.022;6.764;2023-07-13T07:38:00;5.57;;;4.70;;
2434;SDS011;1228;51.022;6.764;2023-07-13T07:40:26;5.23;;;4.60;;
2434;SDS011;1228;51.022;6.764;2023-07-13T07:42:51;7.50;;;4.37;;
2434;SDS011;1228;51.022;6.764;2023-07-13T07:45:17;5.38;;;4.90;;
2434;SDS011;1228;51.022;6.764;2023-07-13T07:47:43;5.57;;;4.80;;
2434;SDS011;1228;51.022;6.764;2023-07-13T07:50:09;6.50;;;5.57;;
2434;SDS011;1228;51.022;6.764;2023-07-13T07:52:35;6.45;;;3.80;;
2434;SDS011;1228;51.022;6.764;2023-07-13T07:55:01;5.40;;;4.95;;
2434;SDS011;1228;51.022;6.764;2023-07-13T07:57:26;6.07;;;3.50;;
2434;SDS011;1228;51.022;6.764;2023-07-13T07:59:52;4.10;;;3.45;;
2434;SDS011;1228;51.022;6.764;2023-07-13T08:02:17;8.25;;;4.10;;
2434;SDS011;1228;51.022;6.764;2023-07-13T08:04:43;7.32;;;4.40;;
2434;SDS011;1228;51.022;6.764;2023-07-13T08:07:08;5.28;;;3.88;;
2434;SDS011;1228;51.022;6.764;2023-07-13T08:09:34;5.00;;;4.30;;
2434;SDS011;1228;51.022;6.764;2023-07-13T08:12:00;5.47;;;4.57;;
2434;SDS011;1228;51.022;6.764;2023-07-13T08:14:25;4.57;;;4.15;;
2434;SDS011;1228;51.022;6.764;2023-07-13T08:16:51;7.47;;;4.18;;
2434;SDS011;1228;51.022;6.764;2023-07-13T08:19:16;7.00;;;3.97;;
2434;SDS011;1228;51.022;6.764;2023-07-13T08:21:42;5.70;;;4.80;;
2434;SDS011;1228;51.022;6.764;2023-07-13T08:24:08;10.90;;;6.88;;
2434;SDS011;1228;51.022;6.764;2023-07-13T08:26:34;8.57;;;5.30;;
2434;SDS011;1228;51.022;6.764;2023-07-13T08:29:00;5.47;;;4.57;;
2434;SDS011;1228;51.022;6.764;2023-07-13T08:31:25;7.07;;;4.75;;
2434;SDS011;1228;51.022;6.764;2023-07-13T08:33:51;7.07;;;6.45;;
2434;SDS011;1228;51.022;6.764;2023-07-13T08:36:16;8.15;;;7.45;;
2434;SDS011;1228;51.022;6.764;2023-07-13T08:38:42;6.68;;;5.72;;
2434;SDS011;1228;51.022;6.764;2023-07-13T08:41:12;8.75;;;6.47;;
2434;SDS011;1228;51.022;6.764;2023-07-13T08:43:40;9.73;;;8.60;;
2434;SDS011;1228;51.022;6.764;2023-07-13T08:46:12;8.25;;;7.45;;
2434;SDS011;1228;51.022;6.764;2023-07-13T08:48:44;5.35;;;4.93;;
2434;SDS011;1228;51.022;6.764;2023-07-13T08:51:31;6.40;;;5.90;;
2434;SDS011;1228;51.022;6.764;2023-07-13T08:54:16;5.70;;;3.88;;
2434;SDS011;1228;51.022;6.764;2023-07-13T08:56:46;7.40;;;4.07;;
2434;SDS011;1228;51.022;6.764;2023-07-13T08:59:18;7.85;;;4.78;;
2434;SDS011;1228;51.022;6.764;2023-07-13T09:01:57;5.00;;;4.60;;
2434;SDS011;1228;51.022;6.764;2023-07-13T09:04:36;7.38;;;4.03;;
2434;SDS011;1228;51.022;6.764;2023-07-13T09:15:30;4.70;;;3.10;;
2434;SDS011;1228;51.022;6.764;2023-07-13T09:18:10;4.63;;;3.33;;
2434;SDS011;1228;51.022;6.764;2023-07-13T09:21:02;7.95;;;3.15;;
2434;SDS011;1228;51.022;6.764;2023-07-13T09:23:32;4.13;;;3.63;;
2434;SDS011;1228;51.022;6.764;2023-07-13T09:26:01;5.15;;;3.67;;
2434;SDS011;1228;51.022;6.764;2023-07-13T09:28:40;3.10;;;2.90;;
2434;SDS011;1228;51.022;6.764;2023-07-13T09:31:13;4.55;;;4.07;;
2434;SDS011;1228;51.022;6.764;2023-07-13T09:33:49;8.07;;;4.30;;
2434;SDS011;1228;51.022;6.764;2023-07-13T09:36:20;6.95;;;3.67;;
2434;SDS011;1228;51.022;6.764;2023-07-13T09:38:46;6.47;;;4.07;;
2434;SDS011;1228;51.022;6.764;2023-07-13T09:41:23;4.40;;;3.75;;
2434;SDS011;1228;51.022;6.764;2023-07-13T09:44:15;8.25;;;4.45;;
2434;SDS011;1228;51.022;6.764;2023-07-13T09:46:44;3.60;;;3.30;;
2434;SDS011;1228;51.022;6.764;2023-07-13T09:49:11;4.50;;;3.33;;
2434;SDS011;1228;51.022;6.764;2023-07-13T09:51:38;6.15;;;3.75;;
2434;SDS011;1228;51.022;6.764;2023-07-13T09:54:05;3.70;;;3.17;;
2434;SDS011;1228;51.022;6.764;2023-07-13T09:56:42;3.90;;;3.40;;
2434;SDS011;1228;51.022;6.764;2023-07-13T09:59:18;7.82;;;3.38;;
2434;SDS011;1228;51.022;6.764;2023-07-13T10:01:44;3.47;;;3.15;;
2434;SDS011;1228;51.022;6.764;2023-07-13T10:04:13;4.97;;;3.15;;
2434;SDS011;1228;51.022;6.764;2023-07-13T10:06:41;7.07;;;3.38;;
2434;SDS011;1228;51.022;6.764;2023-07-13T10:09:08;4.78;;;3.30;;
2434;SDS011;1228;51.022;6.764;2023-07-13T10:11:34;4.28;;;3.55;;
2434;SDS011;1228;51.022;6.764;2023-07-13T10:14:15;10.18;;;3.97;;
2434;SDS011;1228;51.022;6.764;2023-07-13T10:16:44;8.23;;;3.60;;
2434;SDS011;1228;51.022;6.764;2023-07-13T10:19:12;5.88;;;3.50;;
2434;SDS011;1228;51.022;6.764;2023-07-13T10:21:50;3.70;;;3.40;;
2434;SDS011;1228;51.022;6.764;2023-07-13T10:24:24;6.07;;;3.00;;
2434;SDS011;1228;51.022;6.764;2023-07-13T10:30:28;3.00;;;2.80;;
2434;SDS011;1228;51.022;6.764;2023-07-13T10:32:47;4.93;;;3.17;;
2434;SDS011;1228;51.022;6.764;2023-07-13T10:35:15;4.80;;;3.38;;
2434;SDS011;1228;51.022;6.764;2023-07-13T10:40:16;3.30;;;3.10;;
2434;SDS011;1228;51.022;6.764;2023-07-13T10:43:20;3.88;;;2.88;;
2434;SDS011;1228;51.022;6.764;2023-07-13T10:45:51;4.70;;;3.05;;
2434;SDS011;1228;51.022;6.764;2023-07-13T10:48:19;3.50;;;3.13;;
2434;SDS011;1228;51.022;6.764;2023-07-13T10:50:48;3.92;;;3.53;;
2434;SDS011;1228;51.022;6.764;2023-07-13T10:56:01;3.10;;;2.83;;
2434;SDS011;1228;51.022;6.764;2023-07-13T10:58:34;4.03;;;3.25;;
2434;SDS011;1228;51.022;6.764;2023-07-13T11:01:09;3.72;;;3.35;;
2434;SDS011;1228;51.022;6.764;2023-07-13T11:06:11;11.15;;;3.78;;
2434;SDS011;1228;51.022;6.764;2023-07-13T11:09:00;5.40;;;2.83;;
2434;SDS011;1228;51.022;6.764;2023-07-13T11:18:49;5.25;;;3.28;;
2434;SDS011;1228;51.022;6.764;2023-07-13T11:21:20;3.42;;;2.95;;
2434;SDS011;1228;51.022;6.764;2023-07-13T11:24:00;4.00;;;3.17;;
2434;SDS011;1228;51.022;6.764;2023-07-13T11:31:41;4.13;;;3.80;;
2434;SDS011;1228;51.022;6.764;2023-07-13T11:34:12;3.70;;;3.40;;
2434;SDS011;1228;51.022;6.764;2023-07-13T11:36:41;5.45;;;3.85;;
2434;SDS011;1228;51.022;6.764;2023-07-13T11:41:44;3.67;;;2.72;;
2434;SDS011;1228;51.022;6.764;2023-07-13T11:44:19;4.00;;;3.55;;
2434;SDS011;1228;51.022;6.764;2023-07-13T11:46:56;8.00;;;3.30;;
2434;SDS011;1228;51.022;6.764;2023-07-13T11:49:26;4.13;;;3.25;;
2434;SDS011;1228;51.022;6.764;2023-07-13T11:51:54;3.75;;;3.40;;
2434;SDS011;1228;51.022;6.764;2023-07-13T11:54:23;4.22;;;3.00;;
2434;SDS011;1228;51.022;6.764;2023-07-13T11:56:51;4.45;;;2.92;;
2434;SDS011;1228;51.022;6.764;2023-07-13T11:59:18;4.03;;;3.28;;
2434;SDS011;1228;51.022;6.764;2023-07-13T12:01:47;3.45;;;2.88;;
2434;SDS011;1228;51.022;6.764;2023-07-13T12:04:24;3.20;;;2.90;;
2434;SDS011;1228;51.022;6.764;2023-07-13T12:06:57;6.40;;;4.00;;
2434;SDS011;1228;51.022;6.764;2023-07-13T12:09:30;3.10;;;2.88;;
2434;SDS011;1228;51.022;6.764;2023-07-13T12:11:58;4.53;;;3.30;;
2434;SDS011;1228;51.022;6.764;2023-07-13T12:14:25;5.43;;;3.10;;
2434;SDS011;1228;51.022;6.764;2023-07-13T12:16:51;3.67;;;2.85;;
2434;SDS011;1228;51.022;6.764;2023-07-13T12:19:22;5.75;;;3.00;;
2434;SDS011;1228;51.022;6.764;2023-07-13T12:21:50;4.97;;;3.28;;
2434;SDS011;1228;51.022;6.764;2023-07-13T12:24:19;4.65;;;2.90;;
2434;SDS011;1228;51.022;6.764;2023-07-13T12:27:05;3.88;;;2.97;;
2434;SDS011;1228;51.022;6.764;2023-07-13T12:29:32;5.63;;;3.22;;
2434;SDS011;1228;51.022;6.764;2023-07-13T12:31:58;4.75;;;3.20;;
2434;SDS011;1228;51.022;6.764;2023-07-13T12:34:25;2.75;;;2.55;;
2434;SDS011;1228;51.022;6.764;2023-07-13T12:36:53;3.63;;;2.88;;
2434;SDS011;1228;51.022;6.764;2023-07-13T12:39:36;3.42;;;3.20;;
2434;SDS011;1228;51.022;6.764;2023-07-13T12:42:16;3.50;;;3.00;;
2434;SDS011;1228;51.022;6.764;2023-07-13T12:44:52;3.97;;;3.58;;
2434;SDS011;1228;51.022;6.764;2023-07-13T12:47:21;4.80;;;3.33;;
2434;SDS011;1228;51.022;6.764;2023-07-13T12:49:48;2.70;;;2.50;;
2434;SDS011;1228;51.022;6.764;2023-07-13T12:52:23;5.53;;;2.90;;
2434;SDS011;1228;51.022;6.764;2023-07-13T12:54:56;4.93;;;3.05;;
2434;SDS011;1228;51.022;6.764;2023-07-13T12:57:24;4.22;;;2.65;;
2434;SDS011;1228;51.022;6.764;2023-07-13T12:59:53;3.47;;;3.28;;
2434;SDS011;1228;51.022;6.764;2023-07-13T13:02:32;5.78;;;3.08;;
2434;SDS011;1228;51.022;6.764;2023-07-13T13:05:00;3.13;;;2.80;;
2434;SDS011;1228;51.022;6.764;2023-07-13T13:07:28;5.45;;;3.17;;
2434;SDS011;1228;51.022;6.764;2023-07-13T13:09:54;3.25;;;2.97;;
2434;SDS011;1228;51.022;6.764;2023-07-13T13:12:21;3.55;;;3.25;;
2434;SDS011;1228;51.022;6.764;2023-07-13T13:14:49;3.15;;;2.85;;
2434;SDS011;1228;51.022;6.764;2023-07-13T13:17:29;3.00;;;2.63;;
2434;SDS011;1228;51.022;6.764;2023-07-13T13:19:56;3.00;;;2.80;;
2434;SDS011;1228;51.022;6.764;2023-07-13T13:22:22;3.50;;;2.53;;
2434;SDS011;1228;51.022;6.764;2023-07-13T13:24:48;3.00;;;2.70;;
2434;SDS011;1228;51.022;6.764;2023-07-13T13:27:17;7.07;;;2.97;;
2434;SDS011;1228;51.022;6.764;2023-07-13T13:29:44;3.00;;;2.80;;
2434;SDS011;1228;51.022;6.764;2023-07-13T13:32:14;3.70;;;3.15;;
2434;SDS011;1228;51.022;6.764;2023-07-13T13:34:40;5.35;;;2.70;;
2434;SDS011;1228;51.022;6.764;2023-07-13T13:37:25;3.75;;;3.45;;
2434;SDS011;1228;51.022;6.764;2023-07-13T13:39:51;3.65;;;3.45;;
2434;SDS011;1228;51.022;6.764;2023-07-13T13:42:18;2.97;;;2.72;;
2434;SDS011;1228;51.022;6.764;2023-07-13T13:44:46;2.50;;;2.40;;
2434;SDS011;1228;51.022;6.764;2023-07-13T13:47:18;4.50;;;2.90;;
2434;SDS011;1228;51.022;6.764;2023-07-13T13:49:54;3.30;;;3.03;;
2434;SDS011;1228;51.022;6.764;2023-07-13T13:52:20;2.90;;;2.70;;
2434;SDS011;1228;51.022;6.764;2023-07-13T13:54:45;4.30;;;2.60;;
2434;SDS011;1228;51.022;6.764;2023-07-13T13:57:11;3.92;;;2.33;;
2434;SDS011;1228;51.022;6.764;2023-07-13T13:59:37;4.30;;;2.60;;
2434;SDS011;1228;51.022;6.764;2023-07-13T14:02:10;3.55;;;3.25;;
2434;SDS011;1228;51.022;6.764;2023-07-13T14:04:47;3.17;;;2.88;;
2434;SDS011;1228;51.022;6.764;2023-07-13T14:07:15;5.57;;;3.63;;
2434;SDS011;1228;51.022;6.764;2023-07-13T14:09:41;5.22;;;2.90;;
2434;SDS011;1228;51.022;6.764;2023-07-13T14:12:08;3.47;;;3.17;;
2434;SDS011;1228;51.022;6.764;2023-07-13T14:14:36;4.80;;;4.43;;
2434;SDS011;1228;51.022;6.764;2023-07-13T14:17:02;3.20;;;2.90;;
2434;SDS011;1228;51.022;6.764;2023-07-13T14:19:28;2.70;;;2.50;;
2434;SDS011;1228;51.022;6.764;2023-07-13T14:21:54;3.10;;;2.80;;
2434;SDS011;1228;51.022;6.764;2023-07-13T14:24:20;4.50;;;2.63;;
2434;SDS011;1228;51.022;6.764;2023-07-13T14:26:46;6.82;;;3.05;;
2434;SDS011;1228;51.022;6.764;2023-07-13T14:29:13;3.40;;;2.80;;
2434;SDS011;1228;51.022;6.764;2023-07-13T14:31:42;2.75;;;2.45;;
2434;SDS011;1228;51.022;6.764;2023-07-13T14:34:11;3.10;;;2.90;;
2434;SDS011;1228;51.022;6.764;2023-07-13T14:36:42;3.20;;;2.90;;
2434;SDS011;1228;51.022;6.764;2023-07-13T14:41:42;4.35;;;3.78;;
2434;SDS011;1228;51.022;6.764;2023-07-13T14:44:10;3.03;;;2.83;;
2434;SDS011;1228;51.022;6.764;2023-07-13T14:46:37;3.03;;;2.80;;
2434;SDS011;1228;51.022;6.764;2023-07-13T14:49:04;3.03;;;2.83;;
2434;SDS011;1228;51.022;6.764;2023-07-13T14:51:36;4.55;;;3.47;;
2434;SDS011;1228;51.022;6.764;2023-07-13T14:54:02;3.50;;;3.00;;
2434;SDS011;1228;51.022;6.764;2023-07-13T14:56:29;3.72;;;2.67;;
2434;SDS011;1228;51.022;6.764;2023-07-13T14:58:55;3.13;;;2.88;;
2434;SDS011;1228;51.022;6.764;2023-07-13T15:01:20;2.83;;;2.63;;
2434;SDS011;1228;51.022;6.764;2023-07-13T15:03:48;3.17;;;2.88;;
2434;SDS011;1228;51.022;6.764;2023-07-13T15:06:15;3.33;;;2.60;;
2434;SDS011;1228;51.022;6.764;2023-07-13T15:08:41;5.30;;;3.38;;
2434;SDS011;1228;51.022;6.764;2023-07-13T15:11:07;3.17;;;2.80;;
2434;SDS011;1228;51.022;6.764;2023-07-13T15:13:36;4.63;;;2.90;;
2434;SDS011;1228;51.022;6.764;2023-07-13T15:16:03;3.80;;;2.92;;
2434;SDS011;1228;51.022;6.764;2023-07-13T15:18:29;5.45;;;2.90;;
2434;SDS011;1228;51.022;6.764;2023-07-13T15:20:55;3.53;;;2.70;;
2434;SDS011;1228;51.022;6.764;2023-07-13T15:23:25;2.88;;;2.67;;
2434;SDS011;1228;51.022;6.764;2023-07-13T15:25:51;3.40;;;3.10;;
2434;SDS011;1228;51.022;6.764;2023-07-13T15:28:17;4.18;;;3.20;;
2434;SDS011;1228;51.022;6.764;2023-07-13T15:30:44;3.28;;;2.97;;
2434;SDS011;1228;51.022;6.764;2023-07-13T15:35:39;7.03;;;3.60;;
2434;SDS011;1228;51.022;6.764;2023-07-13T15:38:16;4.95;;;3.17;;
2434;SDS011;1228;51.022;6.764;2023-07-13T15:40:43;6.72;;;3.95;;
2434;SDS011;1228;51.022;6.764;2023-07-13T15:43:10;3.35;;;3.10;;
2434;SDS011;1228;51.022;6.764;2023-07-13T15:45:37;5.00;;;3.58;;
2434;SDS011;1228;51.022;6.764;2023-07-13T15:48:14;3.60;;;3.40;;
2434;SDS011;1228;51.022;6.764;2023-07-13T15:50:46;5.38;;;4.75;;
2434;SDS011;1228;51.022;6.764;2023-07-13T15:53:19;3.83;;;3.60;;
2434;SDS011;1228;51.022;6.764;2023-07-13T15:55:47;7.40;;;6.90;;
2434;SDS011;1228;51.022;6.764;2023-07-13T15:58:14;5.25;;;3.95;;
2434;SDS011;1228;51.022;6.764;2023-07-13T16:00:40;4.10;;;3.67;;
2434;SDS011;1228;51.022;6.764;2023-07-13T16:03:06;10.35;;;4.20;;
2434;SDS011;1228;51.022;6.764;2023-07-13T16:05:32;3.38;;;3.08;;